sensor_id;sensor_type;location;lat;lon;timestamp;temperature;humidity
18153;DHT22;9202;51.578;7.734;2023-05-10T00:01:26;13.70;99.90
18153;DHT22;9202;51.578;7.734;2023-05-10T00:03:29;13.60;99.90
18153;DHT22;9202;51.578;7.734;2023-05-10T00:05:31;13.70;99.90
18153;DHT22;9202;51.578;7.734;2023-05-10T00:07:34;13.70;99.90
18153;DHT22;9202;51.578;7.734;2023-05-10T00:09:36;13.70;99.90
18153;DHT22;9202;51.578;7.734;2023-05-10T00:11:39;13.70;99.90
18153;DHT22;9202;51.578;7.734;2023-05-10T00:13:42;13.70;99.90
18153;DHT22;9202;51.578;7.734;2023-05-10T00:15:44;13.60;99.90
18153;DHT22;9202;51.578;7.734;2023-05-10T00:17:47;13.70;99.90
18153;DHT22;9202;51.578;7.734;2023-05-10T00:19:49;13.70;99.90
18153;DHT22;9202;51.578;7.734;2023-05-10T00:21:52;13.60;99.90
18153;DHT22;9202;51.578;7.734;2023-05-10T00:23:54;13.60;99.90
18153;DHT22;9202;51.578;7.734;2023-05-10T00:25:57;13.60;99.90
18153;DHT22;9202;51.578;7.734;2023-05-10T00:28:00;13.60;99.90
18153;DHT22;9202;51.578;7.734;2023-05-10T00:32:19;13.50;99.90
18153;DHT22;9202;51.578;7.734;2023-05-10T00:34:22;13.60;99.90
18153;DHT22;9202;51.578;7.734;2023-05-10T00:36:26;13.50;99.90
18153;DHT22;9202;51.578;7.734;2023-05-10T00:38:29;13.50;99.90
18153;DHT22;9202;51.578;7.734;2023-05-10T00:40:32;13.60;99.90
18153;DHT22;9202;51.578;7.734;2023-05-10T00:42:36;13.60;99.90
18153;DHT22;9202;51.578;7.734;2023-05-10T00:44:39;13.50;99.90
18153;DHT22;9202;51.578;7.734;2023-05-10T00:46:41;13.60;99.90
18153;DHT22;9202;51.578;7.734;2023-05-10T00:48:44;13.60;99.90
18153;DHT22;9202;51.578;7.734;2023-05-10T00:50:47;13.60;99.90
18153;DHT22;9202;51.578;7.734;2023-05-10T00:52:49;13.50;99.90
18153;DHT22;9202;51.578;7.734;2023-05-10T00:54:52;13.60;99.90
18153;DHT22;9202;51.578;7.734;2023-05-10T00:56:55;13.60;99.90
18153;DHT22;9202;51.578;7.734;2023-05-10T00:58:58;13.50;99.90
18153;DHT22;9202;51.578;7.734;2023-05-10T01:01:02;13.50;99.90
18153;DHT22;9202;51.578;7.734;2023-05-10T01:03:04;13.50;99.90
18153;DHT22;9202;51.578;7.734;2023-05-10T01:05:07;13.50;99.90
18153;DHT22;9202;51.578;7.734;2023-05-10T01:07:10;13.60;99.90
18153;DHT22;9202;51.578;7.734;2023-05-10T01:09:13;13.50;99.90
18153;DHT22;9202;51.578;7.734;2023-05-10T01:11:15;13.50;99.90
18153;DHT22;9202;51.578;7.734;2023-05-10T01:13:30;13.50;99.90
18153;DHT22;9202;51.578;7.734;2023-05-10T01:15:23;13.50;99.90
18153;DHT22;9202;51.578;7.734;2023-05-10T01:17:26;13.50;99.90
18153;DHT22;9202;51.578;7.734;2023-05-10T01:19:29;13.50;99.90
18153;DHT22;9202;51.578;7.734;2023-05-10T01:21:33;13.40;99.90
18153;DHT22;9202;51.578;7.734;2023-05-10T01:23:42;13.40;99.90
18153;DHT22;9202;51.578;7.734;2023-05-10T01:26:11;13.50;99.90
18153;DHT22;9202;51.578;7.734;2023-05-10T01:28:18;13.40;99.90
18153;DHT22;9202;51.578;7.734;2023-05-10T01:30:35;13.40;99.90
18153;DHT22;9202;51.578;7.734;2023-05-10T01:32:40;13.40;99.90
18153;DHT22;9202;51.578;7.734;2023-05-10T01:34:47;13.40;99.90
18153;DHT22;9202;51.578;7.734;2023-05-10T01:36:51;13.40;99.90
18153;DHT22;9202;51.578;7.734;2023-05-10T01:38:57;13.40;99.90
18153;DHT22;9202;51.578;7.734;2023-05-10T01:41:03;13.30;99.90
18153;DHT22;9202;51.578;7.734;2023-05-10T01:43:07;13.30;99.90
18153;DHT22;9202;51.578;7.734;2023-05-10T01:47:28;13.40;99.90
18153;DHT22;9202;51.578;7.734;2023-05-10T01:49:34;13.40;99.90
18153;DHT22;9202;51.578;7.734;2023-05-10T01:51:38;13.40;99.90
18153;DHT22;9202;51.578;7.734;2023-05-10T01:53:41;13.50;99.90
18153;DHT22;9202;51.578;7.734;2023-05-10T01:55:46;13.40;99.90
18153;DHT22;9202;51.578;7.734;2023-05-10T01:57:51;13.40;99.90
18153;DHT22;9202;51.578;7.734;2023-05-10T01:59:53;13.40;99.90
18153;DHT22;9202;51.578;7.734;2023-05-10T02:01:57;13.40;99.90
18153;DHT22;9202;51.578;7.734;2023-05-10T02:04:00;13.40;99.90
18153;DHT22;9202;51.578;7.734;2023-05-10T02:06:04;13.40;99.90
18153;DHT22;9202;51.578;7.734;2023-05-10T02:08:08;13.40;99.90
18153;DHT22;9202;51.578;7.734;2023-05-10T02:10:11;13.40;99.90
18153;DHT22;9202;51.578;7.734;2023-05-10T02:12:15;13.40;99.90
18153;DHT22;9202;51.578;7.734;2023-05-10T02:14:18;13.40;99.90
18153;DHT22;9202;51.578;7.734;2023-05-10T02:16:21;13.30;99.90
18153;DHT22;9202;51.578;7.734;2023-05-10T02:18:25;13.40;99.90
18153;DHT22;9202;51.578;7.734;2023-05-10T02:20:30;13.40;99.90
18153;DHT22;9202;51.578;7.734;2023-05-10T02:22:33;13.30;99.90
18153;DHT22;9202;51.578;7.734;2023-05-10T02:24:37;13.40;99.90
18153;DHT22;9202;51.578;7.734;2023-05-10T02:26:40;13.40;99.90
18153;DHT22;9202;51.578;7.734;2023-05-10T02:28:44;13.40;99.90
18153;DHT22;9202;51.578;7.734;2023-05-10T02:30:47;13.40;99.90
18153;DHT22;9202;51.578;7.734;2023-05-10T02:32:50;13.40;99.90
18153;DHT22;9202;51.578;7.734;2023-05-10T02:34:52;13.40;99.90
18153;DHT22;9202;51.578;7.734;2023-05-10T02:36:56;13.40;99.90
18153;DHT22;9202;51.578;7.734;2023-05-10T02:38:59;13.40;99.90
18153;DHT22;9202;51.578;7.734;2023-05-10T02:41:03;13.40;99.90
18153;DHT22;9202;51.578;7.734;2023-05-10T02:43:07;13.40;99.90
18153;DHT22;9202;51.578;7.734;2023-05-10T02:45:12;13.40;99.90
18153;DHT22;9202;51.578;7.734;2023-05-10T02:47:17;13.30;99.90
18153;DHT22;9202;51.578;7.734;2023-05-10T02:49:20;13.30;99.90
18153;DHT22;9202;51.578;7.734;2023-05-10T02:51:23;13.30;99.90
18153;DHT22;9202;51.578;7.734;2023-05-10T02:53:29;13.20;99.90
18153;DHT22;9202;51.578;7.734;2023-05-10T02:55:32;13.20;99.90
18153;DHT22;9202;51.578;7.734;2023-05-10T02:57:35;13.20;99.90
18153;DHT22;9202;51.578;7.734;2023-05-10T02:59:40;13.00;99.90
18153;DHT22;9202;51.578;7.734;2023-05-10T03:01:44;13.10;99.90
18153;DHT22;9202;51.578;7.734;2023-05-10T03:03:47;13.00;99.90
18153;DHT22;9202;51.578;7.734;2023-05-10T03:05:50;13.00;99.90
18153;DHT22;9202;51.578;7.734;2023-05-10T03:07:54;13.00;99.90
18153;DHT22;9202;51.578;7.734;2023-05-10T03:09:58;12.90;99.90
18153;DHT22;9202;51.578;7.734;2023-05-10T03:12:02;12.90;99.90
18153;DHT22;9202;51.578;7.734;2023-05-10T03:14:10;12.90;99.90
18153;DHT22;9202;51.578;7.734;2023-05-10T03:16:14;12.90;99.90
18153;DHT22;9202;51.578;7.734;2023-05-10T03:18:19;12.90;99.90
18153;DHT22;9202;51.578;7.734;2023-05-10T03:20:24;12.80;99.90
18153;DHT22;9202;51.578;7.734;2023-05-10T03:22:31;12.80;99.90
18153;DHT22;9202;51.578;7.734;2023-05-10T03:24:32;12.80;99.90
18153;DHT22;9202;51.578;7.734;2023-05-10T03:26:36;12.80;99.90
18153;DHT22;9202;51.578;7.734;2023-05-10T03:28:41;12.70;99.90
18153;DHT22;9202;51.578;7.734;2023-05-10T03:30:44;12.80;99.90
18153;DHT22;9202;51.578;7.734;2023-05-10T03:32:47;12.80;99.90
18153;DHT22;9202;51.578;7.734;2023-05-10T03:34:51;12.80;99.90
18153;DHT22;9202;51.578;7.734;2023-05-10T03:36:54;12.80;99.90
18153;DHT22;9202;51.578;7.734;2023-05-10T03:38:57;12.80;99.90
18153;DHT22;9202;51.578;7.734;2023-05-10T03:41:00;12.70;99.90
18153;DHT22;9202;51.578;7.734;2023-05-10T03:43:02;12.70;99.90
18153;DHT22;9202;51.578;7.734;2023-05-10T03:45:07;12.70;99.90
18153;DHT22;9202;51.578;7.734;2023-05-10T03:47:10;12.80;99.90
18153;DHT22;9202;51.578;7.734;2023-05-10T03:49:13;12.80;99.90
18153;DHT22;9202;51.578;7.734;2023-05-10T03:51:16;12.70;99.90
18153;DHT22;9202;51.578;7.734;2023-05-10T03:53:18;12.70;99.90
18153;DHT22;9202;51.578;7.734;2023-05-10T03:55:21;12.70;99.90
18153;DHT22;9202;51.578;7.734;2023-05-10T03:57:24;12.60;99.90
18153;DHT22;9202;51.578;7.734;2023-05-10T03:59:27;12.60;99.90
18153;DHT22;9202;51.578;7.734;2023-05-10T04:01:29;12.60;99.90
18153;DHT22;9202;51.578;7.734;2023-05-10T04:03:32;12.60;99.90
18153;DHT22;9202;51.578;7.734;2023-05-10T04:07:50;12.60;99.90
18153;DHT22;9202;51.578;7.734;2023-05-10T04:09:52;12.50;99.90
18153;DHT22;9202;51.578;7.734;2023-05-10T04:11:56;12.50;99.90
18153;DHT22;9202;51.578;7.734;2023-05-10T04:14:00;12.60;99.90
18153;DHT22;9202;51.578;7.734;2023-05-10T04:16:03;12.50;99.90
18153;DHT22;9202;51.578;7.734;2023-05-10T04:18:06;12.50;99.90
18153;DHT22;9202;51.578;7.734;2023-05-10T04:20:11;12.60;99.90
18153;DHT22;9202;51.578;7.734;2023-05-10T04:22:14;12.60;99.90
18153;DHT22;9202;51.578;7.734;2023-05-10T04:24:16;12.60;99.90
18153;DHT22;9202;51.578;7.734;2023-05-10T04:26:19;12.60;99.90
18153;DHT22;9202;51.578;7.734;2023-05-10T04:28:21;12.70;99.90
18153;DHT22;9202;51.578;7.734;2023-05-10T04:30:24;12.70;99.90
18153;DHT22;9202;51.578;7.734;2023-05-10T04:32:26;12.70;99.90
18153;DHT22;9202;51.578;7.734;2023-05-10T04:34:29;12.70;99.90
18153;DHT22;9202;51.578;7.734;2023-05-10T04:36:32;12.70;99.90
18153;DHT22;9202;51.578;7.734;2023-05-10T04:38:36;12.80;99.90
18153;DHT22;9202;51.578;7.734;2023-05-10T04:40:39;12.70;99.90
18153;DHT22;9202;51.578;7.734;2023-05-10T04:42:43;12.70;99.90
18153;DHT22;9202;51.578;7.734;2023-05-10T04:44:49;12.80;99.90
18153;DHT22;9202;51.578;7.734;2023-05-10T04:46:56;12.80;99.90
18153;DHT22;9202;51.578;7.734;2023-05-10T04:49:02;12.80;99.90
18153;DHT22;9202;51.578;7.734;2023-05-10T04:51:09;12.90;99.90
18153;DHT22;9202;51.578;7.734;2023-05-10T04:53:16;12.90;99.90
18153;DHT22;9202;51.578;7.734;2023-05-10T04:55:21;13.00;99.90
18153;DHT22;9202;51.578;7.734;2023-05-10T04:57:24;13.00;99.90
18153;DHT22;9202;51.578;7.734;2023-05-10T04:59:27;13.00;99.90
18153;DHT22;9202;51.578;7.734;2023-05-10T05:01:30;13.00;99.90
18153;DHT22;9202;51.578;7.734;2023-05-10T05:03:33;13.00;99.90
18153;DHT22;9202;51.578;7.734;2023-05-10T05:05:35;13.00;99.90
18153;DHT22;9202;51.578;7.734;2023-05-10T05:07:38;13.10;99.90
18153;DHT22;9202;51.578;7.734;2023-05-10T05:09:40;13.10;99.90
18153;DHT22;9202;51.578;7.734;2023-05-10T05:11:43;13.10;99.90
18153;DHT22;9202;51.578;7.734;2023-05-10T05:13:46;13.20;99.90
18153;DHT22;9202;51.578;7.734;2023-05-10T05:15:48;13.20;99.90
18153;DHT22;9202;51.578;7.734;2023-05-10T05:17:51;13.20;99.90
18153;DHT22;9202;51.578;7.734;2023-05-10T05:19:54;13.10;99.90
18153;DHT22;9202;51.578;7.734;2023-05-10T05:21:56;13.10;99.90
18153;DHT22;9202;51.578;7.734;2023-05-10T05:23:59;13.10;99.90
18153;DHT22;9202;51.578;7.734;2023-05-10T05:26:02;13.10;99.90
18153;DHT22;9202;51.578;7.734;2023-05-10T05:28:05;13.10;99.90
18153;DHT22;9202;51.578;7.734;2023-05-10T05:30:08;13.10;99.90
18153;DHT22;9202;51.578;7.734;2023-05-10T05:32:11;13.10;99.90
18153;DHT22;9202;51.578;7.734;2023-05-10T05:34:14;13.10;99.90
18153;DHT22;9202;51.578;7.734;2023-05-10T05:36:16;13.10;99.90
18153;DHT22;9202;51.578;7.734;2023-05-10T05:38:19;13.10;99.90
18153;DHT22;9202;51.578;7.734;2023-05-10T05:40:22;13.10;99.90
18153;DHT22;9202;51.578;7.734;2023-05-10T05:42:24;13.10;99.90
18153;DHT22;9202;51.578;7.734;2023-05-10T05:44:27;13.10;99.90
18153;DHT22;9202;51.578;7.734;2023-05-10T05:46:30;13.20;99.90
18153;DHT22;9202;51.578;7.734;2023-05-10T05:48:33;13.10;99.90
18153;DHT22;9202;51.578;7.734;2023-05-10T05:50:35;13.10;99.90
18153;DHT22;9202;51.578;7.734;2023-05-10T05:54:55;13.30;99.90
18153;DHT22;9202;51.578;7.734;2023-05-10T05:56:58;13.20;99.90
18153;DHT22;9202;51.578;7.734;2023-05-10T05:59:02;13.20;99.90
18153;DHT22;9202;51.578;7.734;2023-05-10T06:01:05;13.30;99.90
18153;DHT22;9202;51.578;7.734;2023-05-10T06:03:08;13.40;99.90
18153;DHT22;9202;51.578;7.734;2023-05-10T06:05:11;13.40;99.90
18153;DHT22;9202;51.578;7.734;2023-05-10T06:07:13;13.50;99.90
18153;DHT22;9202;51.578;7.734;2023-05-10T06:09:16;13.50;99.90
18153;DHT22;9202;51.578;7.734;2023-05-10T06:11:18;13.50;99.90
18153;DHT22;9202;51.578;7.734;2023-05-10T06:13:22;13.60;99.90
18153;DHT22;9202;51.578;7.734;2023-05-10T06:15:26;13.60;99.90
18153;DHT22;9202;51.578;7.734;2023-05-10T06:17:31;13.70;99.90
18153;DHT22;9202;51.578;7.734;2023-05-10T06:19:33;13.60;99.90
18153;DHT22;9202;51.578;7.734;2023-05-10T06:21:36;13.80;99.90
18153;DHT22;9202;51.578;7.734;2023-05-10T06:23:38;13.70;99.90
18153;DHT22;9202;51.578;7.734;2023-05-10T06:25:41;13.60;99.90
18153;DHT22;9202;51.578;7.734;2023-05-10T06:27:44;13.60;99.90
18153;DHT22;9202;51.578;7.734;2023-05-10T06:29:48;13.70;99.90
18153;DHT22;9202;51.578;7.734;2023-05-10T06:31:53;13.70;99.90
18153;DHT22;9202;51.578;7.734;2023-05-10T06:33:56;13.60;99.90
18153;DHT22;9202;51.578;7.734;2023-05-10T06:36:03;13.60;99.90
18153;DHT22;9202;51.578;7.734;2023-05-10T06:38:06;13.60;99.90
18153;DHT22;9202;51.578;7.734;2023-05-10T06:40:10;13.60;99.90
18153;DHT22;9202;51.578;7.734;2023-05-10T06:42:15;13.60;99.90
18153;DHT22;9202;51.578;7.734;2023-05-10T06:44:19;13.70;99.90
18153;DHT22;9202;51.578;7.734;2023-05-10T06:46:22;13.70;99.90
18153;DHT22;9202;51.578;7.734;2023-05-10T06:48:26;13.70;99.90
18153;DHT22;9202;51.578;7.734;2023-05-10T06:50:30;13.80;99.90
18153;DHT22;9202;51.578;7.734;2023-05-10T06:52:34;13.90;99.90
18153;DHT22;9202;51.578;7.734;2023-05-10T06:54:38;13.90;99.90
18153;DHT22;9202;51.578;7.734;2023-05-10T06:56:42;13.90;99.90
18153;DHT22;9202;51.578;7.734;2023-05-10T06:58:45;13.90;99.90
18153;DHT22;9202;51.578;7.734;2023-05-10T07:00:48;13.80;99.90
18153;DHT22;9202;51.578;7.734;2023-05-10T07:02:51;13.90;99.90
18153;DHT22;9202;51.578;7.734;2023-05-10T07:04:54;14.00;99.90
18153;DHT22;9202;51.578;7.734;2023-05-10T07:06:57;14.00;99.90
18153;DHT22;9202;51.578;7.734;2023-05-10T07:09:00;14.10;99.90
18153;DHT22;9202;51.578;7.734;2023-05-10T07:11:02;14.20;99.90
18153;DHT22;9202;51.578;7.734;2023-05-10T07:13:06;14.20;99.90
18153;DHT22;9202;51.578;7.734;2023-05-10T07:15:09;14.20;99.90
18153;DHT22;9202;51.578;7.734;2023-05-10T07:17:12;14.20;99.90
18153;DHT22;9202;51.578;7.734;2023-05-10T07:19:14;14.20;99.90
18153;DHT22;9202;51.578;7.734;2023-05-10T07:21:17;14.20;99.90
18153;DHT22;9202;51.578;7.734;2023-05-10T07:23:20;14.20;99.90
18153;DHT22;9202;51.578;7.734;2023-05-10T07:25:22;14.20;99.90
18153;DHT22;9202;51.578;7.734;2023-05-10T07:27:26;14.10;99.90
18153;DHT22;9202;51.578;7.734;2023-05-10T07:29:29;14.10;99.90
18153;DHT22;9202;51.578;7.734;2023-05-10T07:31:31;14.20;99.90
18153;DHT22;9202;51.578;7.734;2023-05-10T07:33:34;14.20;99.90
18153;DHT22;9202;51.578;7.734;2023-05-10T07:35:37;14.30;99.90
18153;DHT22;9202;51.578;7.734;2023-05-10T07:37:39;14.30;99.90
18153;DHT22;9202;51.578;7.734;2023-05-10T07:39:42;14.30;99.90
18153;DHT22;9202;51.578;7.734;2023-05-10T07:41:44;14.40;99.90
18153;DHT22;9202;51.578;7.734;2023-05-10T07:43:47;14.70;99.90
18153;DHT22;9202;51.578;7.734;2023-05-10T07:45:49;14.80;99.90
18153;DHT22;9202;51.578;7.734;2023-05-10T07:47:54;14.80;99.90
18153;DHT22;9202;51.578;7.734;2023-05-10T07:49:57;14.80;99.90
18153;DHT22;9202;51.578;7.734;2023-05-10T07:51:59;14.80;99.90
18153;DHT22;9202;51.578;7.734;2023-05-10T07:54:02;14.80;99.90
18153;DHT22;9202;51.578;7.734;2023-05-10T07:56:20;14.80;99.90
18153;DHT22;9202;51.578;7.734;2023-05-10T07:58:22;14.80;99.90
18153;DHT22;9202;51.578;7.734;2023-05-10T08:00:25;14.80;99.90
18153;DHT22;9202;51.578;7.734;2023-05-10T08:02:27;14.90;99.90
18153;DHT22;9202;51.578;7.734;2023-05-10T08:04:31;14.90;99.90
18153;DHT22;9202;51.578;7.734;2023-05-10T08:06:33;15.00;99.90
18153;DHT22;9202;51.578;7.734;2023-05-10T08:08:36;15.00;99.90
18153;DHT22;9202;51.578;7.734;2023-05-10T08:10:38;15.00;99.90
18153;DHT22;9202;51.578;7.734;2023-05-10T08:12:41;15.00;99.90
18153;DHT22;9202;51.578;7.734;2023-05-10T08:14:44;15.00;99.90
18153;DHT22;9202;51.578;7.734;2023-05-10T08:19:02;15.10;99.90
18153;DHT22;9202;51.578;7.734;2023-05-10T08:21:05;15.20;99.90
18153;DHT22;9202;51.578;7.734;2023-05-10T08:23:08;15.20;99.90
18153;DHT22;9202;51.578;7.734;2023-05-10T08:25:10;15.30;99.90
18153;DHT22;9202;51.578;7.734;2023-05-10T08:27:13;15.30;99.90
18153;DHT22;9202;51.578;7.734;2023-05-10T08:29:15;15.30;99.90
18153;DHT22;9202;51.578;7.734;2023-05-10T08:31:18;15.20;99.90
18153;DHT22;9202;51.578;7.734;2023-05-10T08:33:21;15.20;99.90
18153;DHT22;9202;51.578;7.734;2023-05-10T08:35:24;15.30;99.90
18153;DHT22;9202;51.578;7.734;2023-05-10T08:37:26;15.40;99.90
18153;DHT22;9202;51.578;7.734;2023-05-10T08:39:34;15.30;99.90
18153;DHT22;9202;51.578;7.734;2023-05-10T08:41:36;15.20;99.90
18153;DHT22;9202;51.578;7.734;2023-05-10T08:43:41;15.10;99.90
18153;DHT22;9202;51.578;7.734;2023-05-10T08:45:45;15.10;99.90
18153;DHT22;9202;51.578;7.734;2023-05-10T08:47:48;15.10;99.90
18153;DHT22;9202;51.578;7.734;2023-05-10T08:49:51;15.00;99.90
18153;DHT22;9202;51.578;7.734;2023-05-10T08:51:54;15.00;99.90
18153;DHT22;9202;51.578;7.734;2023-05-10T08:53:57;15.10;99.90
18153;DHT22;9202;51.578;7.734;2023-05-10T08:56:01;15.40;99.90
18153;DHT22;9202;51.578;7.734;2023-05-10T08:58:04;15.80;99.90
18153;DHT22;9202;51.578;7.734;2023-05-10T09:00:08;16.00;99.90
18153;DHT22;9202;51.578;7.734;2023-05-10T09:02:11;15.90;99.90
18153;DHT22;9202;51.578;7.734;2023-05-10T09:04:14;15.80;99.90
18153;DHT22;9202;51.578;7.734;2023-05-10T09:06:17;15.70;99.90
18153;DHT22;9202;51.578;7.734;2023-05-10T09:08:19;15.70;99.90
18153;DHT22;9202;51.578;7.734;2023-05-10T09:10:22;15.80;99.90
18153;DHT22;9202;51.578;7.734;2023-05-10T09:12:27;16.10;99.90
18153;DHT22;9202;51.578;7.734;2023-05-10T09:14:29;16.20;99.90
18153;DHT22;9202;51.578;7.734;2023-05-10T09:18:47;16.00;99.90
18153;DHT22;9202;51.578;7.734;2023-05-10T09:20:51;16.00;99.90
18153;DHT22;9202;51.578;7.734;2023-05-10T09:22:54;16.50;99.90
18153;DHT22;9202;51.578;7.734;2023-05-10T09:25:06;16.50;99.90
18153;DHT22;9202;51.578;7.734;2023-05-10T09:27:09;16.80;99.90
18153;DHT22;9202;51.578;7.734;2023-05-10T09:29:12;16.90;99.90
18153;DHT22;9202;51.578;7.734;2023-05-10T09:31:17;16.80;99.90
18153;DHT22;9202;51.578;7.734;2023-05-10T09:33:19;16.70;99.90
18153;DHT22;9202;51.578;7.734;2023-05-10T09:35:22;16.50;99.90
18153;DHT22;9202;51.578;7.734;2023-05-10T09:37:29;16.30;99.90
18153;DHT22;9202;51.578;7.734;2023-05-10T09:39:32;16.10;99.90
18153;DHT22;9202;51.578;7.734;2023-05-10T09:41:35;16.00;99.90
18153;DHT22;9202;51.578;7.734;2023-05-10T09:43:38;16.00;99.90
18153;DHT22;9202;51.578;7.734;2023-05-10T09:45:40;16.00;99.90
18153;DHT22;9202;51.578;7.734;2023-05-10T09:47:43;16.10;99.90
18153;DHT22;9202;51.578;7.734;2023-05-10T09:49:49;16.30;99.90
18153;DHT22;9202;51.578;7.734;2023-05-10T09:52:00;16.50;99.90
18153;DHT22;9202;51.578;7.734;2023-05-10T09:54:09;16.70;99.90
18153;DHT22;9202;51.578;7.734;2023-05-10T09:56:12;16.90;99.90
18153;DHT22;9202;51.578;7.734;2023-05-10T09:58:15;17.10;99.90
18153;DHT22;9202;51.578;7.734;2023-05-10T10:00:19;17.00;99.90
18153;DHT22;9202;51.578;7.734;2023-05-10T10:02:21;16.80;99.90
18153;DHT22;9202;51.578;7.734;2023-05-10T10:04:26;16.70;99.90
18153;DHT22;9202;51.578;7.734;2023-05-10T10:06:29;16.80;99.90
18153;DHT22;9202;51.578;7.734;2023-05-10T10:08:32;16.80;99.90
18153;DHT22;9202;51.578;7.734;2023-05-10T10:10:34;17.00;99.90
18153;DHT22;9202;51.578;7.734;2023-05-10T10:12:37;17.20;99.90
18153;DHT22;9202;51.578;7.734;2023-05-10T10:14:40;17.50;99.90
18153;DHT22;9202;51.578;7.734;2023-05-10T10:16:42;17.60;99.90
18153;DHT22;9202;51.578;7.734;2023-05-10T10:18:47;17.70;99.90
18153;DHT22;9202;51.578;7.734;2023-05-10T10:20:50;17.60;99.90
18153;DHT22;9202;51.578;7.734;2023-05-10T10:22:53;17.60;99.90
18153;DHT22;9202;51.578;7.734;2023-05-10T10:24:55;17.60;99.90
18153;DHT22;9202;51.578;7.734;2023-05-10T10:26:59;17.60;99.90
18153;DHT22;9202;51.578;7.734;2023-05-10T10:29:06;17.60;99.90
18153;DHT22;9202;51.578;7.734;2023-05-10T10:31:14;17.60;99.90
18153;DHT22;9202;51.578;7.734;2023-05-10T10:33:39;17.70;99.90
18153;DHT22;9202;51.578;7.734;2023-05-10T10:35:42;17.90;99.90
18153;DHT22;9202;51.578;7.734;2023-05-10T10:37:45;17.90;99.90
18153;DHT22;9202;51.578;7.734;2023-05-10T10:39:48;17.80;99.90
18153;DHT22;9202;51.578;7.734;2023-05-10T10:41:51;17.70;99.90
18153;DHT22;9202;51.578;7.734;2023-05-10T10:46:16;17.80;99.90
18153;DHT22;9202;51.578;7.734;2023-05-10T10:48:20;18.00;99.90
18153;DHT22;9202;51.578;7.734;2023-05-10T10:50:23;17.90;99.90
18153;DHT22;9202;51.578;7.734;2023-05-10T10:52:26;18.00;99.90
18153;DHT22;9202;51.578;7.734;2023-05-10T10:54:30;18.20;99.90
18153;DHT22;9202;51.578;7.734;2023-05-10T10:56:34;18.30;99.90
18153;DHT22;9202;51.578;7.734;2023-05-10T10:58:38;18.40;99.90
18153;DHT22;9202;51.578;7.734;2023-05-10T11:00:41;18.30;99.90
18153;DHT22;9202;51.578;7.734;2023-05-10T11:02:45;18.20;99.90
18153;DHT22;9202;51.578;7.734;2023-05-10T11:04:50;18.00;99.90
18153;DHT22;9202;51.578;7.734;2023-05-10T11:06:53;17.90;99.90
18153;DHT22;9202;51.578;7.734;2023-05-10T11:08:57;17.80;99.90
18153;DHT22;9202;51.578;7.734;2023-05-10T11:11:04;17.80;99.90
18153;DHT22;9202;51.578;7.734;2023-05-10T11:13:09;17.90;99.90
18153;DHT22;9202;51.578;7.734;2023-05-10T11:15:12;18.00;99.90
18153;DHT22;9202;51.578;7.734;2023-05-10T11:17:22;18.00;99.90
18153;DHT22;9202;51.578;7.734;2023-05-10T11:19:27;17.80;99.90
18153;DHT22;9202;51.578;7.734;2023-05-10T11:21:30;18.10;99.90
18153;DHT22;9202;51.578;7.734;2023-05-10T11:23:33;18.20;99.90
18153;DHT22;9202;51.578;7.734;2023-05-10T11:25:41;18.40;99.90
18153;DHT22;9202;51.578;7.734;2023-05-10T11:27:43;18.60;99.90
18153;DHT22;9202;51.578;7.734;2023-05-10T11:29:46;18.60;99.90
18153;DHT22;9202;51.578;7.734;2023-05-10T11:34:05;18.90;99.90
18153;DHT22;9202;51.578;7.734;2023-05-10T11:36:10;19.10;99.90
18153;DHT22;9202;51.578;7.734;2023-05-10T11:38:13;19.40;99.90
18153;DHT22;9202;51.578;7.734;2023-05-10T11:40:16;19.70;99.90
18153;DHT22;9202;51.578;7.734;2023-05-10T11:42:19;19.80;99.90
18153;DHT22;9202;51.578;7.734;2023-05-10T11:44:22;19.50;99.90
18153;DHT22;9202;51.578;7.734;2023-05-10T11:46:25;18.80;99.90
18153;DHT22;9202;51.578;7.734;2023-05-10T11:48:29;18.20;99.90
18153;DHT22;9202;51.578;7.734;2023-05-10T11:50:32;17.60;99.90
18153;DHT22;9202;51.578;7.734;2023-05-10T11:52:36;17.20;99.90
18153;DHT22;9202;51.578;7.734;2023-05-10T11:54:45;17.00;99.90
18153;DHT22;9202;51.578;7.734;2023-05-10T11:56:48;16.80;99.90
18153;DHT22;9202;51.578;7.734;2023-05-10T11:58:55;16.70;99.90
18153;DHT22;9202;51.578;7.734;2023-05-10T12:00:58;16.70;99.90
18153;DHT22;9202;51.578;7.734;2023-05-10T12:03:01;16.60;99.90
18153;DHT22;9202;51.578;7.734;2023-05-10T12:05:05;16.60;99.90
18153;DHT22;9202;51.578;7.734;2023-05-10T12:07:09;16.60;99.90
18153;DHT22;9202;51.578;7.734;2023-05-10T12:09:11;16.70;99.90
18153;DHT22;9202;51.578;7.734;2023-05-10T12:11:14;16.80;99.90
18153;DHT22;9202;51.578;7.734;2023-05-10T12:13:17;16.90;99.90
18153;DHT22;9202;51.578;7.734;2023-05-10T12:15:20;17.00;99.90
18153;DHT22;9202;51.578;7.734;2023-05-10T12:17:27;17.10;99.90
18153;DHT22;9202;51.578;7.734;2023-05-10T12:19:37;17.20;99.90
18153;DHT22;9202;51.578;7.734;2023-05-10T12:21:39;17.40;99.90
18153;DHT22;9202;51.578;7.734;2023-05-10T12:23:43;17.50;99.90
18153;DHT22;9202;51.578;7.734;2023-05-10T12:25:47;17.50;99.90
18153;DHT22;9202;51.578;7.734;2023-05-10T12:27:51;17.40;99.90
18153;DHT22;9202;51.578;7.734;2023-05-10T12:29:54;17.50;99.90
18153;DHT22;9202;51.578;7.734;2023-05-10T12:31:58;17.60;99.90
18153;DHT22;9202;51.578;7.734;2023-05-10T12:34:01;17.60;99.90
18153;DHT22;9202;51.578;7.734;2023-05-10T12:36:04;17.60;99.90
18153;DHT22;9202;51.578;7.734;2023-05-10T12:38:23;17.80;99.90
18153;DHT22;9202;51.578;7.734;2023-05-10T12:40:27;17.90;99.90
18153;DHT22;9202;51.578;7.734;2023-05-10T12:42:29;18.00;99.90
18153;DHT22;9202;51.578;7.734;2023-05-10T12:44:33;17.90;99.90
18153;DHT22;9202;51.578;7.734;2023-05-10T12:46:35;17.70;99.90
18153;DHT22;9202;51.578;7.734;2023-05-10T12:48:39;17.70;99.90
18153;DHT22;9202;51.578;7.734;2023-05-10T12:50:42;17.60;99.90
18153;DHT22;9202;51.578;7.734;2023-05-10T12:52:45;17.50;99.90
18153;DHT22;9202;51.578;7.734;2023-05-10T12:54:47;17.50;99.90
18153;DHT22;9202;51.578;7.734;2023-05-10T12:56:50;17.60;99.90
18153;DHT22;9202;51.578;7.734;2023-05-10T12:58:53;17.70;99.90
18153;DHT22;9202;51.578;7.734;2023-05-10T13:00:56;17.90;99.90
18153;DHT22;9202;51.578;7.734;2023-05-10T13:02:58;18.00;99.90
18153;DHT22;9202;51.578;7.734;2023-05-10T13:05:01;18.00;99.90
18153;DHT22;9202;51.578;7.734;2023-05-10T13:07:04;17.90;99.90
18153;DHT22;9202;51.578;7.734;2023-05-10T13:09:07;17.80;99.90
18153;DHT22;9202;51.578;7.734;2023-05-10T13:11:13;17.80;99.90
18153;DHT22;9202;51.578;7.734;2023-05-10T13:13:26;17.80;99.90
18153;DHT22;9202;51.578;7.734;2023-05-10T13:15:29;17.60;99.90
18153;DHT22;9202;51.578;7.734;2023-05-10T13:17:33;17.50;99.90
18153;DHT22;9202;51.578;7.734;2023-05-10T13:19:37;17.40;99.90
18153;DHT22;9202;51.578;7.734;2023-05-10T13:21:40;17.60;99.90
18153;DHT22;9202;51.578;7.734;2023-05-10T13:23:44;17.50;99.90
18153;DHT22;9202;51.578;7.734;2023-05-10T13:25:49;17.60;99.90
18153;DHT22;9202;51.578;7.734;2023-05-10T13:27:54;17.50;99.90
18153;DHT22;9202;51.578;7.734;2023-05-10T13:29:58;17.60;99.90
18153;DHT22;9202;51.578;7.734;2023-05-10T13:32:02;17.70;99.90